sensor_id;sensor_type;location;lat;lon;timestamp;P1;durP1;ratioP1;P2;durP2;ratioP2
64832;SDS011;51290;45.060;38.948;2023-04-28T00:00:26;3.25;;;2.53;;
64832;SDS011;51290;45.060;38.948;2023-04-28T00:02:51;2.30;;;2.10;;
64832;SDS011;51290;45.060;38.948;2023-04-28T00:05:18;3.88;;;2.58;;
64832;SDS011;51290;45.060;38.948;2023-04-28T00:07:44;2.63;;;1.92;;
64832;SDS011;51290;45.060;38.948;2023-04-28T00:10:10;3.08;;;2.22;;
64832;SDS011;51290;45.060;38.948;2023-04-28T00:12:36;2.38;;;2.13;;
64832;SDS011;51290;45.060;38.948;2023-04-28T00:15:03;5.03;;;2.15;;
64832;SDS011;51290;45.060;38.948;2023-04-28T00:17:29;4.90;;;2.67;;
64832;SDS011;51290;45.060;38.948;2023-04-28T00:19:55;4.88;;;2.90;;
64832;SDS011;51290;45.060;38.948;2023-04-28T00:22:21;4.47;;;2.15;;
64832;SDS011;51290;45.060;38.948;2023-04-28T00:24:47;3.88;;;2.60;;
64832;SDS011;51290;45.060;38.948;2023-04-28T00:27:12;3.22;;;2.13;;
64832;SDS011;51290;45.060;38.948;2023-04-28T00:29:38;2.00;;;1.77;;
64832;SDS011;51290;45.060;38.948;2023-04-28T00:32:04;8.52;;;2.42;;
64832;SDS011;51290;45.060;38.948;2023-04-28T00:34:33;3.72;;;2.20;;
64832;SDS011;51290;45.060;38.948;2023-04-28T00:37:02;2.92;;;2.40;;
64832;SDS011;51290;45.060;38.948;2023-04-28T00:39:28;7.35;;;2.53;;
64832;SDS011;51290;45.060;38.948;2023-04-28T00:41:54;2.40;;;2.05;;
64832;SDS011;51290;45.060;38.948;2023-04-28T00:44:20;3.13;;;2.10;;
64832;SDS011;51290;45.060;38.948;2023-04-28T00:46:46;4.15;;;2.53;;
64832;SDS011;51290;45.060;38.948;2023-04-28T00:49:14;3.15;;;2.22;;
64832;SDS011;51290;45.060;38.948;2023-04-28T00:51:40;3.78;;;2.55;;
64832;SDS011;51290;45.060;38.948;2023-04-28T00:54:06;6.15;;;2.75;;
64832;SDS011;51290;45.060;38.948;2023-04-28T00:56:32;3.30;;;2.30;;
64832;SDS011;51290;45.060;38.948;2023-04-28T00:58:58;2.65;;;2.38;;
64832;SDS011;51290;45.060;38.948;2023-04-28T01:01:24;3.33;;;2.50;;
64832;SDS011;51290;45.060;38.948;2023-04-28T01:03:50;4.43;;;2.50;;
64832;SDS011;51290;45.060;38.948;2023-04-28T01:06:17;4.72;;;2.42;;
64832;SDS011;51290;45.060;38.948;2023-04-28T01:08:46;3.42;;;2.75;;
64832;SDS011;51290;45.060;38.948;2023-04-28T01:11:14;5.20;;;2.55;;
64832;SDS011;51290;45.060;38.948;2023-04-28T01:13:59;2.83;;;2.22;;
64832;SDS011;51290;45.060;38.948;2023-04-28T01:16:27;4.90;;;2.53;;
64832;SDS011;51290;45.060;38.948;2023-04-28T01:18:56;4.28;;;2.30;;
64832;SDS011;51290;45.060;38.948;2023-04-28T01:21:26;2.58;;;1.92;;
64832;SDS011;51290;45.060;38.948;2023-04-28T01:24:00;3.15;;;2.20;;
64832;SDS011;51290;45.060;38.948;2023-04-28T01:26:27;3.55;;;2.22;;
64832;SDS011;51290;45.060;38.948;2023-04-28T01:28:52;5.43;;;2.55;;
64832;SDS011;51290;45.060;38.948;2023-04-28T01:31:18;4.97;;;2.88;;
64832;SDS011;51290;45.060;38.948;2023-04-28T01:33:45;2.40;;;2.05;;
64832;SDS011;51290;45.060;38.948;2023-04-28T01:36:10;2.78;;;2.05;;
64832;SDS011;51290;45.060;38.948;2023-04-28T01:38:36;2.78;;;2.30;;
64832;SDS011;51290;45.060;38.948;2023-04-28T01:41:02;6.18;;;2.70;;
64832;SDS011;51290;45.060;38.948;2023-04-28T01:43:30;2.60;;;2.10;;
64832;SDS011;51290;45.060;38.948;2023-04-28T01:45:57;15.52;;;2.60;;
64832;SDS011;51290;45.060;38.948;2023-04-28T01:48:23;2.47;;;1.98;;
64832;SDS011;51290;45.060;38.948;2023-04-28T01:50:49;3.95;;;2.65;;
64832;SDS011;51290;45.060;38.948;2023-04-28T01:53:15;6.78;;;2.80;;
64832;SDS011;51290;45.060;38.948;2023-04-28T01:55:45;2.22;;;2.03;;
64832;SDS011;51290;45.060;38.948;2023-04-28T01:58:12;3.47;;;2.33;;
64832;SDS011;51290;45.060;38.948;2023-04-28T02:00:38;2.88;;;2.15;;
64832;SDS011;51290;45.060;38.948;2023-04-28T02:03:04;5.13;;;2.40;;
64832;SDS011;51290;45.060;38.948;2023-04-28T02:05:33;3.55;;;2.30;;
64832;SDS011;51290;45.060;38.948;2023-04-28T02:07:59;2.70;;;1.85;;
64832;SDS011;51290;45.060;38.948;2023-04-28T02:10:25;2.28;;;2.08;;
64832;SDS011;51290;45.060;38.948;2023-04-28T02:12:51;3.42;;;2.00;;
64832;SDS011;51290;45.060;38.948;2023-04-28T02:15:18;4.10;;;2.55;;
64832;SDS011;51290;45.060;38.948;2023-04-28T02:17:45;4.97;;;2.60;;
64832;SDS011;51290;45.060;38.948;2023-04-28T02:20:11;2.20;;;2.00;;
64832;SDS011;51290;45.060;38.948;2023-04-28T02:22:39;3.40;;;2.38;;
64832;SDS011;51290;45.060;38.948;2023-04-28T02:25:06;2.17;;;1.98;;
64832;SDS011;51290;45.060;38.948;2023-04-28T02:27:35;1.95;;;1.67;;
64832;SDS011;51290;45.060;38.948;2023-04-28T02:30:03;2.88;;;2.20;;
64832;SDS011;51290;45.060;38.948;2023-04-28T02:32:29;2.33;;;2.00;;
64832;SDS011;51290;45.060;38.948;2023-04-28T02:34:55;2.08;;;1.88;;
64832;SDS011;51290;45.060;38.948;2023-04-28T02:37:22;3.22;;;2.00;;
64832;SDS011;51290;45.060;38.948;2023-04-28T02:39:49;2.92;;;2.00;;
64832;SDS011;51290;45.060;38.948;2023-04-28T02:42:15;2.40;;;2.20;;
64832;SDS011;51290;45.060;38.948;2023-04-28T02:44:41;2.25;;;2.05;;
64832;SDS011;51290;45.060;38.948;2023-04-28T02:47:07;3.95;;;2.25;;
64832;SDS011;51290;45.060;38.948;2023-04-28T02:49:33;2.33;;;1.83;;
64832;SDS011;51290;45.060;38.948;2023-04-28T02:51:59;2.38;;;1.85;;
64832;SDS011;51290;45.060;38.948;2023-04-28T02:54:26;3.85;;;2.15;;
64832;SDS011;51290;45.060;38.948;2023-04-28T02:56:55;1.60;;;1.48;;
64832;SDS011;51290;45.060;38.948;2023-04-28T02:59:23;2.55;;;1.88;;
64832;SDS011;51290;45.060;38.948;2023-04-28T03:01:49;6.97;;;2.42;;
64832;SDS011;51290;45.060;38.948;2023-04-28T03:04:18;5.22;;;2.17;;
64832;SDS011;51290;45.060;38.948;2023-04-28T03:06:45;2.20;;;2.00;;
64832;SDS011;51290;45.060;38.948;2023-04-28T03:09:11;2.17;;;2.03;;
64832;SDS011;51290;45.060;38.948;2023-04-28T03:11:38;2.60;;;2.03;;
64832;SDS011;51290;45.060;38.948;2023-04-28T03:14:04;4.28;;;2.42;;
64832;SDS011;51290;45.060;38.948;2023-04-28T03:16:30;2.85;;;2.08;;
64832;SDS011;51290;45.060;38.948;2023-04-28T03:18:56;3.15;;;2.25;;
64832;SDS011;51290;45.060;38.948;2023-04-28T03:21:24;2.17;;;1.80;;
64832;SDS011;51290;45.060;38.948;2023-04-28T03:23:53;4.95;;;2.22;;
64832;SDS011;51290;45.060;38.948;2023-04-28T03:26:20;2.38;;;2.13;;
64832;SDS011;51290;45.060;38.948;2023-04-28T03:28:48;1.70;;;1.60;;
64832;SDS011;51290;45.060;38.948;2023-04-28T03:31:14;2.90;;;2.00;;
64832;SDS011;51290;45.060;38.948;2023-04-28T03:33:40;2.65;;;2.20;;
64832;SDS011;51290;45.060;38.948;2023-04-28T03:36:08;16.35;;;3.05;;
64832;SDS011;51290;45.060;38.948;2023-04-28T03:38:34;3.83;;;2.60;;
64832;SDS011;51290;45.060;38.948;2023-04-28T03:41:00;3.05;;;2.20;;
64832;SDS011;51290;45.060;38.948;2023-04-28T03:43:52;2.50;;;2.25;;
64832;SDS011;51290;45.060;38.948;2023-04-28T03:46:29;5.10;;;2.90;;
64832;SDS011;51290;45.060;38.948;2023-04-28T03:48:57;3.08;;;2.65;;
64832;SDS011;51290;45.060;38.948;2023-04-28T03:51:23;4.43;;;3.22;;
64832;SDS011;51290;45.060;38.948;2023-04-28T03:53:50;3.92;;;2.50;;
64832;SDS011;51290;45.060;38.948;2023-04-28T03:56:16;3.47;;;2.60;;
64832;SDS011;51290;45.060;38.948;2023-04-28T03:58:42;4.63;;;2.90;;
64832;SDS011;51290;45.060;38.948;2023-04-28T04:01:07;3.75;;;2.80;;
64832;SDS011;51290;45.060;38.948;2023-04-28T04:03:33;3.13;;;2.58;;
64832;SDS011;51290;45.060;38.948;2023-04-28T04:05:59;4.85;;;3.33;;
64832;SDS011;51290;45.060;38.948;2023-04-28T04:08:26;2.67;;;2.10;;
64832;SDS011;51290;45.060;38.948;2023-04-28T04:10:52;1.95;;;1.75;;
64832;SDS011;51290;45.060;38.948;2023-04-28T04:13:20;2.33;;;1.83;;
64832;SDS011;51290;45.060;38.948;2023-04-28T04:15:47;2.00;;;1.90;;
64832;SDS011;51290;45.060;38.948;2023-04-28T04:18:15;2.85;;;2.10;;
64832;SDS011;51290;45.060;38.948;2023-04-28T04:21:00;2.72;;;2.28;;
64832;SDS011;51290;45.060;38.948;2023-04-28T04:23:28;1.75;;;1.65;;
64832;SDS011;51290;45.060;38.948;2023-04-28T04:25:54;2.38;;;1.83;;
64832;SDS011;51290;45.060;38.948;2023-04-28T04:28:21;2.50;;;2.22;;
64832;SDS011;51290;45.060;38.948;2023-04-28T04:30:47;2.40;;;2.20;;
64832;SDS011;51290;45.060;38.948;2023-04-28T04:33:13;3.50;;;2.00;;
64832;SDS011;51290;45.060;38.948;2023-04-28T04:35:39;5.47;;;2.45;;
64832;SDS011;51290;45.060;38.948;2023-04-28T04:38:05;2.45;;;2.25;;
64832;SDS011;51290;45.060;38.948;2023-04-28T04:40:32;6.45;;;2.05;;
64832;SDS011;51290;45.060;38.948;2023-04-28T04:42:58;3.65;;;1.90;;
64832;SDS011;51290;45.060;38.948;2023-04-28T04:45:26;3.33;;;2.35;;
64832;SDS011;51290;45.060;38.948;2023-04-28T04:47:52;2.50;;;1.70;;
64832;SDS011;51290;45.060;38.948;2023-04-28T04:50:18;7.47;;;2.63;;
64832;SDS011;51290;45.060;38.948;2023-04-28T04:52:44;2.55;;;2.03;;
64832;SDS011;51290;45.060;38.948;2023-04-28T04:55:10;3.05;;;2.03;;
64832;SDS011;51290;45.060;38.948;2023-04-28T04:57:38;2.38;;;2.17;;
64832;SDS011;51290;45.060;38.948;2023-04-28T05:00:13;4.32;;;2.70;;
64832;SDS011;51290;45.060;38.948;2023-04-28T05:02:42;3.45;;;2.22;;
64832;SDS011;51290;45.060;38.948;2023-04-28T05:05:08;1.58;;;1.48;;
64832;SDS011;51290;45.060;38.948;2023-04-28T05:07:35;1.33;;;1.27;;
64832;SDS011;51290;45.060;38.948;2023-04-28T05:10:01;3.40;;;2.30;;
64832;SDS011;51290;45.060;38.948;2023-04-28T05:12:29;2.13;;;1.92;;
64832;SDS011;51290;45.060;38.948;2023-04-28T05:14:55;3.50;;;2.42;;
64832;SDS011;51290;45.060;38.948;2023-04-28T05:17:21;4.10;;;2.42;;
64832;SDS011;51290;45.060;38.948;2023-04-28T05:19:47;4.70;;;3.25;;
64832;SDS011;51290;45.060;38.948;2023-04-28T05:22:14;3.72;;;2.75;;
64832;SDS011;51290;45.060;38.948;2023-04-28T05:24:40;3.92;;;2.88;;
64832;SDS011;51290;45.060;38.948;2023-04-28T05:27:06;6.30;;;2.90;;
64832;SDS011;51290;45.060;38.948;2023-04-28T05:29:33;5.70;;;3.03;;
64832;SDS011;51290;45.060;38.948;2023-04-28T05:31:59;5.15;;;3.28;;
64832;SDS011;51290;45.060;38.948;2023-04-28T05:34:25;5.78;;;3.38;;
64832;SDS011;51290;45.060;38.948;2023-04-28T05:36:51;9.70;;;3.45;;
64832;SDS011;51290;45.060;38.948;2023-04-28T05:39:20;5.88;;;3.40;;
64832;SDS011;51290;45.060;38.948;2023-04-28T05:41:46;6.45;;;3.67;;
64832;SDS011;51290;45.060;38.948;2023-04-28T05:44:12;11.27;;;3.85;;
64832;SDS011;51290;45.060;38.948;2023-04-28T05:46:38;5.32;;;3.38;;
64832;SDS011;51290;45.060;38.948;2023-04-28T05:49:04;6.38;;;3.17;;
64832;SDS011;51290;45.060;38.948;2023-04-28T05:51:36;4.97;;;2.83;;
64832;SDS011;51290;45.060;38.948;2023-04-28T05:54:02;4.60;;;2.85;;
64832;SDS011;51290;45.060;38.948;2023-04-28T05:56:31;4.97;;;3.28;;
64832;SDS011;51290;45.060;38.948;2023-04-28T05:58:58;9.20;;;3.42;;
64832;SDS011;51290;45.060;38.948;2023-04-28T06:01:28;4.22;;;3.08;;
64832;SDS011;51290;45.060;38.948;2023-04-28T06:03:55;3.58;;;2.65;;
64832;SDS011;51290;45.060;38.948;2023-04-28T06:06:24;4.10;;;3.10;;
64832;SDS011;51290;45.060;38.948;2023-04-28T06:08:50;4.85;;;3.22;;
64832;SDS011;51290;45.060;38.948;2023-04-28T06:11:16;5.50;;;3.45;;
64832;SDS011;51290;45.060;38.948;2023-04-28T06:13:47;5.05;;;2.75;;
64832;SDS011;51290;45.060;38.948;2023-04-28T06:16:15;6.43;;;3.20;;
64832;SDS011;51290;45.060;38.948;2023-04-28T06:18:43;4.88;;;3.17;;
64832;SDS011;51290;45.060;38.948;2023-04-28T06:21:09;5.57;;;3.60;;
64832;SDS011;51290;45.060;38.948;2023-04-28T06:23:35;3.60;;;2.70;;
64832;SDS011;51290;45.060;38.948;2023-04-28T06:26:03;7.20;;;3.25;;
64832;SDS011;51290;45.060;38.948;2023-04-28T06:28:29;6.22;;;3.70;;
64832;SDS011;51290;45.060;38.948;2023-04-28T06:30:55;4.25;;;2.67;;
64832;SDS011;51290;45.060;38.948;2023-04-28T06:33:20;5.05;;;2.88;;
64832;SDS011;51290;45.060;38.948;2023-04-28T06:35:47;3.80;;;2.20;;
64832;SDS011;51290;45.060;38.948;2023-04-28T06:38:14;4.68;;;3.03;;
64832;SDS011;51290;45.060;38.948;2023-04-28T06:40:40;4.63;;;3.55;;
64832;SDS011;51290;45.060;38.948;2023-04-28T06:43:07;4.93;;;3.17;;
64832;SDS011;51290;45.060;38.948;2023-04-28T06:45:37;5.95;;;3.67;;
64832;SDS011;51290;45.060;38.948;2023-04-28T06:48:05;7.38;;;3.65;;
64832;SDS011;51290;45.060;38.948;2023-04-28T06:50:36;4.07;;;3.00;;
64832;SDS011;51290;45.060;38.948;2023-04-28T06:53:05;3.78;;;2.72;;
64832;SDS011;51290;45.060;38.948;2023-04-28T06:55:32;6.18;;;3.25;;
64832;SDS011;51290;45.060;38.948;2023-04-28T06:57:58;4.90;;;3.17;;
64832;SDS011;51290;45.060;38.948;2023-04-28T07:00:24;3.65;;;2.67;;
64832;SDS011;51290;45.060;38.948;2023-04-28T07:02:50;5.57;;;3.42;;
64832;SDS011;51290;45.060;38.948;2023-04-28T07:05:16;3.55;;;3.05;;
64832;SDS011;51290;45.060;38.948;2023-04-28T07:07:42;5.63;;;3.17;;
64832;SDS011;51290;45.060;38.948;2023-04-28T07:10:08;5.63;;;3.10;;
64832;SDS011;51290;45.060;38.948;2023-04-28T07:12:36;4.15;;;3.20;;
64832;SDS011;51290;45.060;38.948;2023-04-28T07:15:02;9.23;;;3.95;;
64832;SDS011;51290;45.060;38.948;2023-04-28T07:17:28;8.68;;;4.32;;
64832;SDS011;51290;45.060;38.948;2023-04-28T07:19:54;8.65;;;3.60;;
64832;SDS011;51290;45.060;38.948;2023-04-28T07:22:20;5.07;;;3.03;;
64832;SDS011;51290;45.060;38.948;2023-04-28T07:24:46;4.80;;;3.17;;
64832;SDS011;51290;45.060;38.948;2023-04-28T07:27:11;4.60;;;3.10;;
64832;SDS011;51290;45.060;38.948;2023-04-28T07:29:38;5.65;;;3.63;;
64832;SDS011;51290;45.060;38.948;2023-04-28T07:32:04;6.78;;;4.15;;
64832;SDS011;51290;45.060;38.948;2023-04-28T07:34:32;4.65;;;3.13;;
64832;SDS011;51290;45.060;38.948;2023-04-28T07:37:00;4.90;;;3.38;;
64832;SDS011;51290;45.060;38.948;2023-04-28T07:39:27;5.38;;;3.20;;
64832;SDS011;51290;45.060;38.948;2023-04-28T07:41:53;5.07;;;3.40;;
64832;SDS011;51290;45.060;38.948;2023-04-28T07:44:19;5.38;;;3.42;;
64832;SDS011;51290;45.060;38.948;2023-04-28T07:46:45;5.22;;;3.50;;
64832;SDS011;51290;45.060;38.948;2023-04-28T07:49:11;6.85;;;3.80;;
64832;SDS011;51290;45.060;38.948;2023-04-28T07:51:37;5.15;;;3.03;;
64832;SDS011;51290;45.060;38.948;2023-04-28T07:54:03;3.47;;;2.72;;
64832;SDS011;51290;45.060;38.948;2023-04-28T07:56:28;4.15;;;2.90;;
64832;SDS011;51290;45.060;38.948;2023-04-28T07:58:55;3.28;;;2.70;;
64832;SDS011;51290;45.060;38.948;2023-04-28T08:01:21;2.58;;;2.35;;
64832;SDS011;51290;45.060;38.948;2023-04-28T08:03:47;4.15;;;2.92;;
64832;SDS011;51290;45.060;38.948;2023-04-28T08:06:13;3.30;;;2.50;;
64832;SDS011;51290;45.060;38.948;2023-04-28T08:08:39;4.45;;;3.13;;
64832;SDS011;51290;45.060;38.948;2023-04-28T08:11:05;4.47;;;3.20;;
64832;SDS011;51290;45.060;38.948;2023-04-28T08:13:32;12.10;;;5.40;;
64832;SDS011;51290;45.060;38.948;2023-04-28T08:15:58;6.60;;;3.55;;
64832;SDS011;51290;45.060;38.948;2023-04-28T08:18:27;5.18;;;3.00;;
64832;SDS011;51290;45.060;38.948;2023-04-28T08:20:53;6.07;;;3.75;;
64832;SDS011;51290;45.060;38.948;2023-04-28T08:23:19;4.32;;;2.95;;
64832;SDS011;51290;45.060;38.948;2023-04-28T08:25:45;4.85;;;2.78;;
64832;SDS011;51290;45.060;38.948;2023-04-28T08:28:12;7.18;;;2.72;;
64832;SDS011;51290;45.060;38.948;2023-04-28T08:30:38;5.47;;;3.28;;
64832;SDS011;51290;45.060;38.948;2023-04-28T08:33:04;5.95;;;3.88;;
64832;SDS011;51290;45.060;38.948;2023-04-28T08:35:30;4.03;;;2.65;;
64832;SDS011;51290;45.060;38.948;2023-04-28T08:37:56;4.38;;;3.08;;
64832;SDS011;51290;45.060;38.948;2023-04-28T08:40:22;4.00;;;2.75;;
64832;SDS011;51290;45.060;38.948;2023-04-28T08:42:49;4.90;;;3.03;;
64832;SDS011;51290;45.060;38.948;2023-04-28T08:45:15;4.35;;;2.72;;
64832;SDS011;51290;45.060;38.948;2023-04-28T08:47:42;5.93;;;3.38;;
64832;SDS011;51290;45.060;38.948;2023-04-28T08:50:12;3.85;;;2.85;;
64832;SDS011;51290;45.060;38.948;2023-04-28T08:52:40;2.92;;;2.33;;
64832;SDS011;51290;45.060;38.948;2023-04-28T08:55:08;3.92;;;2.85;;
64832;SDS011;51290;45.060;38.948;2023-04-28T08:57:45;3.30;;;2.85;;
64832;SDS011;51290;45.060;38.948;2023-04-28T09:00:15;7.97;;;3.13;;
64832;SDS011;51290;45.060;38.948;2023-04-28T09:02:41;5.85;;;3.75;;
64832;SDS011;51290;45.060;38.948;2023-04-28T09:05:08;4.88;;;3.70;;
64832;SDS011;51290;45.060;38.948;2023-04-28T09:07:35;3.47;;;2.88;;
64832;SDS011;51290;45.060;38.948;2023-04-28T09:10:14;4.28;;;3.10;;
64832;SDS011;51290;45.060;38.948;2023-04-28T09:12:41;3.83;;;2.90;;
64832;SDS011;51290;45.060;38.948;2023-04-28T09:15:07;7.45;;;3.53;;
64832;SDS011;51290;45.060;38.948;2023-04-28T09:17:47;3.97;;;2.75;;
64832;SDS011;51290;45.060;38.948;2023-04-28T09:20:20;4.60;;;3.13;;
64832;SDS011;51290;45.060;38.948;2023-04-28T09:22:47;2.97;;;2.47;;
64832;SDS011;51290;45.060;38.948;2023-04-28T09:25:14;3.95;;;2.40;;
64832;SDS011;51290;45.060;38.948;2023-04-28T09:27:40;3.47;;;2.65;;
64832;SDS011;51290;45.060;38.948;2023-04-28T09:30:07;4.28;;;3.22;;
64832;SDS011;51290;45.060;38.948;2023-04-28T09:32:34;3.97;;;2.90;;
64832;SDS011;51290;45.060;38.948;2023-04-28T09:35:00;4.47;;;3.15;;
64832;SDS011;51290;45.060;38.948;2023-04-28T09:37:27;3.50;;;3.00;;
64832;SDS011;51290;45.060;38.948;2023-04-28T09:39:57;4.97;;;3.20;;
64832;SDS011;51290;45.060;38.948;2023-04-28T09:42:37;5.50;;;3.58;;
64832;SDS011;51290;45.060;38.948;2023-04-28T09:45:06;5.87;;;3.23;;
64832;SDS011;51290;45.060;38.948;2023-04-28T09:47:39;3.63;;;2.63;;
64832;SDS011;51290;45.060;38.948;2023-04-28T09:50:06;4.20;;;3.15;;
64832;SDS011;51290;45.060;38.948;2023-04-28T09:52:33;6.13;;;3.30;;
64832;SDS011;51290;45.060;38.948;2023-04-28T09:55:01;4.43;;;3.10;;
64832;SDS011;51290;45.060;38.948;2023-04-28T09:57:32;5.47;;;3.58;;
64832;SDS011;51290;45.060;38.948;2023-04-28T09:59:59;4.13;;;3.30;;
64832;SDS011;51290;45.060;38.948;2023-04-28T10:02:26;5.03;;;3.35;;
64832;SDS011;51290;45.060;38.948;2023-04-28T10:04:53;4.10;;;2.92;;
64832;SDS011;51290;45.060;38.948;2023-04-28T10:07:19;5.15;;;3.53;;
64832;SDS011;51290;45.060;38.948;2023-04-28T10:09:46;4.22;;;3.00;;
64832;SDS011;51290;45.060;38.948;2023-04-28T10:12:23;4.63;;;3.03;;
64832;SDS011;51290;45.060;38.948;2023-04-28T10:14:50;7.60;;;3.38;;
64832;SDS011;51290;45.060;38.948;2023-04-28T10:17:22;4.57;;;3.20;;
64832;SDS011;51290;45.060;38.948;2023-04-28T10:19:53;3.78;;;3.05;;
64832;SDS011;51290;45.060;38.948;2023-04-28T10:22:41;3.30;;;2.88;;
64832;SDS011;51290;45.060;38.948;2023-04-28T10:27:58;4.47;;;2.92;;
64832;SDS011;51290;45.060;38.948;2023-04-28T10:30:26;4.72;;;3.15;;
64832;SDS011;51290;45.060;38.948;2023-04-28T10:35:42;4.45;;;2.88;;
64832;SDS011;51290;45.060;38.948;2023-04-28T10:38:12;2.47;;;2.28;;
64832;SDS011;51290;45.060;38.948;2023-04-28T10:43:13;4.43;;;2.80;;
64832;SDS011;51290;45.060;38.948;2023-04-28T10:45:58;4.40;;;2.47;;
64832;SDS011;51290;45.060;38.948;2023-04-28T10:56:22;3.25;;;2.40;;
64832;SDS011;51290;45.060;38.948;2023-04-28T10:58:50;3.63;;;2.47;;
64832;SDS011;51290;45.060;38.948;2023-04-28T11:08:51;2.30;;;2.10;;
64832;SDS011;51290;45.060;38.948;2023-04-28T11:11:23;4.35;;;2.50;;
64832;SDS011;51290;45.060;38.948;2023-04-28T11:13:54;2.55;;;2.30;;
64832;SDS011;51290;45.060;38.948;2023-04-28T11:19:21;3.08;;;2.38;;
64832;SDS011;51290;45.060;38.948;2023-04-28T11:21:53;2.27;;;2.07;;
64832;SDS011;51290;45.060;38.948;2023-04-28T11:24:21;3.95;;;2.40;;
64832;SDS011;51290;45.060;38.948;2023-04-28T11:26:50;2.22;;;2.03;;
64832;SDS011;51290;45.060;38.948;2023-04-28T11:29:16;2.60;;;2.40;;
64832;SDS011;51290;45.060;38.948;2023-04-28T11:31:51;3.95;;;2.40;;
64832;SDS011;51290;45.060;38.948;2023-04-28T11:34:18;2.22;;;2.03;;
64832;SDS011;51290;45.060;38.948;2023-04-28T11:36:48;2.42;;;1.95;;
64832;SDS011;51290;45.060;38.948;2023-04-28T11:39:14;2.67;;;2.05;;
64832;SDS011;51290;45.060;38.948;2023-04-28T11:41:41;2.22;;;2.03;;
64832;SDS011;51290;45.060;38.948;2023-04-28T11:44:10;2.58;;;2.20;;
64832;SDS011;51290;45.060;38.948;2023-04-28T11:46:43;3.42;;;2.17;;
64832;SDS011;51290;45.060;38.948;2023-04-28T11:49:15;2.35;;;1.83;;
64832;SDS011;51290;45.060;38.948;2023-04-28T11:51:41;4.95;;;2.10;;
64832;SDS011;51290;45.060;38.948;2023-04-28T11:54:10;3.50;;;2.13;;
64832;SDS011;51290;45.060;38.948;2023-04-28T11:56:37;3.15;;;2.35;;
64832;SDS011;51290;45.060;38.948;2023-04-28T11:59:05;2.10;;;2.00;;
64832;SDS011;51290;45.060;38.948;2023-04-28T12:01:48;2.47;;;2.08;;
64832;SDS011;51290;45.060;38.948;2023-04-28T12:04:35;2.15;;;1.95;;
64832;SDS011;51290;45.060;38.948;2023-04-28T12:09:44;2.97;;;2.20;;
64832;SDS011;51290;45.060;38.948;2023-04-28T12:12:29;1.65;;;1.55;;
64832;SDS011;51290;45.060;38.948;2023-04-28T12:17:24;2.42;;;1.63;;
64832;SDS011;51290;45.060;38.948;2023-04-28T12:19:51;2.65;;;1.90;;
64832;SDS011;51290;45.060;38.948;2023-04-28T12:22:17;4.07;;;2.05;;
64832;SDS011;51290;45.060;38.948;2023-04-28T12:24:43;2.47;;;1.95;;
64832;SDS011;51290;45.060;38.948;2023-04-28T12:27:19;3.63;;;2.03;;
64832;SDS011;51290;45.060;38.948;2023-04-28T12:29:50;1.85;;;1.75;;
64832;SDS011;51290;45.060;38.948;2023-04-28T12:32:16;5.35;;;2.00;;
64832;SDS011;51290;45.060;38.948;2023-04-28T12:34:44;4.43;;;2.00;;
64832;SDS011;51290;45.060;38.948;2023-04-28T12:37:11;8.20;;;2.20;;
64832;SDS011;51290;45.060;38.948;2023-04-28T12:39:38;2.90;;;1.90;;
64832;SDS011;51290;45.060;38.948;2023-04-28T12:42:06;3.83;;;2.05;;
64832;SDS011;51290;45.060;38.948;2023-04-28T12:44:33;3.08;;;2.17;;
64832;SDS011;51290;45.060;38.948;2023-04-28T12:47:04;4.00;;;2.58;;
64832;SDS011;51290;45.060;38.948;2023-04-28T12:49:32;1.88;;;1.77;;
64832;SDS011;51290;45.060;38.948;2023-04-28T12:51:59;3.35;;;2.33;;
64832;SDS011;51290;45.060;38.948;2023-04-28T12:54:25;3.63;;;2.60;;
64832;SDS011;51290;45.060;38.948;2023-04-28T12:56:51;3.70;;;2.45;;
64832;SDS011;51290;45.060;38.948;2023-04-28T12:59:19;3.25;;;2.35;;
64832;SDS011;51290;45.060;38.948;2023-04-28T13:01:46;4.53;;;2.80;;
64832;SDS011;51290;45.060;38.948;2023-04-28T13:04:12;5.95;;;2.67;;
64832;SDS011;51290;45.060;38.948;2023-04-28T13:06:38;5.65;;;2.95;;
64832;SDS011;51290;45.060;38.948;2023-04-28T13:09:11;3.53;;;2.58;;
64832;SDS011;51290;45.060;38.948;2023-04-28T13:11:39;4.45;;;2.72;;
64832;SDS011;51290;45.060;38.948;2023-04-28T13:14:06;2.20;;;1.98;;
64832;SDS011;51290;45.060;38.948;2023-04-28T13:16:33;4.90;;;3.03;;
64832;SDS011;51290;45.060;38.948;2023-04-28T13:19:03;3.08;;;2.53;;
64832;SDS011;51290;45.060;38.948;2023-04-28T13:21:33;4.07;;;2.45;;
64832;SDS011;51290;45.060;38.948;2023-04-28T13:24:00;3.08;;;2.58;;
64832;SDS011;51290;45.060;38.948;2023-04-28T13:26:26;4.00;;;2.55;;
64832;SDS011;51290;45.060;38.948;2023-04-28T13:28:52;4.30;;;2.58;;
64832;SDS011;51290;45.060;38.948;2023-04-28T13:31:18;2.45;;;2.03;;
64832;SDS011;51290;45.060;38.948;2023-04-28T13:33:44;5.32;;;2.35;;
64832;SDS011;51290;45.060;38.948;2023-04-28T13:36:10;2.67;;;2.05;;
64832;SDS011;51290;45.060;38.948;2023-04-28T13:38:37;3.03;;;2.22;;
64832;SDS011;51290;45.060;38.948;2023-04-28T13:41:03;2.88;;;2.10;;
64832;SDS011;51290;45.060;38.948;2023-04-28T13:43:29;2.10;;;1.90;;
64832;SDS011;51290;45.060;38.948;2023-04-28T13:45:55;5.00;;;2.63;;
64832;SDS011;51290;45.060;38.948;2023-04-28T13:48:22;4.03;;;2.58;;
64832;SDS011;51290;45.060;38.948;2023-04-28T13:50:49;2.42;;;2.20;;
64832;SDS011;51290;45.060;38.948;2023-04-28T13:53:15;3.83;;;2.42;;
64832;SDS011;51290;45.060;38.948;2023-04-28T13:55:41;3.60;;;2.47;;
64832;SDS011;51290;45.060;38.948;2023-04-28T13:58:07;9.45;;;2.40;;
64832;SDS011;51290;45.060;38.948;2023-04-28T14:00:33;4.90;;;2.50;;
64832;SDS011;51290;45.060;38.948;2023-04-28T14:03:01;2.15;;;2.00;;
64832;SDS011;51290;45.060;38.948;2023-04-28T14:05:28;4.20;;;2.90;;
64832;SDS011;51290;45.060;38.948;2023-04-28T14:07:54;3.58;;;2.40;;
64832;SDS011;51290;45.060;38.948;2023-04-28T14:10:20;3.03;;;2.20;;
64832;SDS011;51290;45.060;38.948;2023-04-28T14:12:47;4.22;;;3.00;;
64832;SDS011;51290;45.060;38.948;2023-04-28T14:15:14;3.75;;;2.35;;
64832;SDS011;51290;45.060;38.948;2023-04-28T14:17:41;4.53;;;2.70;;
64832;SDS011;51290;45.060;38.948;2023-04-28T14:20:07;3.05;;;2.25;;
64832;SDS011;51290;45.060;38.948;2023-04-28T14:22:36;3.58;;;2.30;;
64832;SDS011;51290;45.060;38.948;2023-04-28T14:25:03;4.22;;;3.08;;
64832;SDS011;51290;45.060;38.948;2023-04-28T14:27:30;5.18;;;2.63;;
64832;SDS011;51290;45.060;38.948;2023-04-28T14:29:57;4.43;;;2.90;;
64832;SDS011;51290;45.060;38.948;2023-04-28T14:32:24;3.33;;;2.25;;
64832;SDS011;51290;45.060;38.948;2023-04-28T14:34:50;4.30;;;2.22;;
64832;SDS011;51290;45.060;38.948;2023-04-28T14:37:16;2.95;;;2.28;;
64832;SDS011;51290;45.060;38.948;2023-04-28T14:39:42;3.88;;;2.65;;
64832;SDS011;51290;45.060;38.948;2023-04-28T14:42:09;4.90;;;2.78;;
64832;SDS011;51290;45.060;38.948;2023-04-28T14:44:35;4.55;;;3.05;;
64832;SDS011;51290;45.060;38.948;2023-04-28T14:47:01;3.58;;;2.88;;
64832;SDS011;51290;45.060;38.948;2023-04-28T14:49:28;3.08;;;2.33;;
64832;SDS011;51290;45.060;38.948;2023-04-28T14:51:55;4.38;;;2.60;;
64832;SDS011;51290;45.060;38.948;2023-04-28T14:54:21;3.75;;;2.78;;
64832;SDS011;51290;45.060;38.948;2023-04-28T14:56:48;4.07;;;2.65;;
64832;SDS011;51290;45.060;38.948;2023-04-28T14:59:14;3.03;;;2.47;;
64832;SDS011;51290;45.060;38.948;2023-04-28T15:01:40;4.40;;;2.78;;
64832;SDS011;51290;45.060;38.948;2023-04-28T15:04:06;6.93;;;2.88;;
64832;SDS011;51290;45.060;38.948;2023-04-28T15:06:34;4.75;;;2.88;;